Nearby METAR Reports

 

K9MN - St Mary Hospital, Minnesota, USA
Distance from station: SW 3mi, 4km
Updated: 09/21/2018 5:35am
Overcast
Overcast
 Wind from W
Wind: W 21 mph , 33 km/h, Gust: 36 mph , 57 km/h
Temperature: 57°F , 14°C
Dew Point: 54°F , 12°C
Humidity: 88%
Barometer: 29.78 inHg , 1008.5 hPa
Clouds: Overcast
Visibility: 10 miles , 16 km
Cloud details: Overcast 1500 ft
2018/09/21 10:35 K9MN 211035Z AUTO 28018G31KT 10SM OVC015 14/12 A2978 RMK AO1 T01370115
KRST - Rochester, Minnesota, USA
Distance from station: SSW 10mi, 16km
Updated: 09/21/2018 4:54am
Light rain, Overcast
Light rain, Overcast
 Wind from W
Wind: W 18 mph , 30 km/h, Gust: 31 mph , 50 km/h
Temperature: 57°F , 14°C
Dew Point: 55°F , 13°C
Humidity: 94%
Barometer: 29.76 inHg , 1007.8 hPa
Summary: Light rain
Clouds: Overcast
Visibility: 10 miles , 16 km
Cloud details: Overcast 1500 ft
2018/09/21 09:54 KRST 210954Z 27016G27KT 10SM -RA OVC015 14/13 A2976 RMK AO2 PK WND 28031/0936 RAE21B46 SLP076 P0000 T01390128
 
KTOB - Dodge Center, Minnesota, USA
Distance from station: W 19mi, 30km
Updated: 09/21/2018 5:35am
Overcast
Overcast
 Wind from W
Wind: W 22 mph , 35 km/h, Gust: 35 mph , 56 km/h
Temperature: 55°F , 13°C
Dew Point: 50°F , 10°C
Humidity: 82%
Barometer: 29.81 inHg , 1009.5 hPa
Clouds: Overcast
Visibility: 10 miles , 16 km
Cloud details: Mostly cloudy 1900 ft
Overcast 2600 ft
2018/09/21 10:35 KTOB 211035Z AUTO 27019G30KT 10SM BKN019 OVC026 13/10 A2981 RMK AO2
KFKA - Preston, Minnesota, USA
Distance from station: SSE 28mi, 45km
Updated: 09/21/2018 5:35am
Overcast
Overcast
 Wind from WNW
Wind: WNW 16 mph , 26 km/h, Gust: 35 mph , 56 km/h
Temperature: 55°F , 13°C
Dew Point: 54°F , 12°C
Humidity: 94%
Barometer: 29.80 inHg , 1009.1 hPa
Clouds: Overcast
Visibility: 7 miles , 11 km
Cloud details: Mostly cloudy 1400 ft
Overcast 2400 ft
2018/09/21 10:35 KFKA 211035Z AUTO 29014G30KT 7SM BKN014 OVC024 13/12 A2980 RMK AO2 T01320115
 
KAUM - Austin Muni, Minnesota, USA
Distance from station: SW 35mi, 57km
Updated: 09/21/2018 5:35am
Overcast
Overcast
 Wind from WNW
Wind: WNW 17 mph , 28 km/h, Gust: 25 mph , 41 km/h
Temperature: 57°F , 14°C
Dew Point: 52°F , 11°C
Humidity: 82%
Barometer: 29.83 inHg , 1010.2 hPa
Clouds: Overcast
Visibility: 10 miles , 16 km
Cloud details: Mostly cloudy 1800 ft
Overcast 2700 ft
2018/09/21 10:35 KAUM 211035Z AUTO 29015G22KT 10SM BKN018 OVC027 14/11 A2983 RMK AO2
KONA - Winona Muni, Minnesota, USA
Distance from station: E 37mi, 59km
Updated: 09/21/2018 5:36am
Overcast
Overcast
 Wind from W
Wind: W 14 mph , 22 km/h, Gust: 30 mph , 48 km/h
Temperature: 61°F , 16°C
Dew Point: 54°F , 12°C
Humidity: 77%
Barometer: 29.74 inHg , 1007.1 hPa
Clouds: Overcast
Visibility: 10 miles , 16 km
Cloud details: Mostly cloudy 2200 ft
Overcast 2800 ft
2018/09/21 10:36 KONA 211036Z AUTO 28012G26KT 241V311 10SM BKN022 OVC028 16/12 A2974 RMK AO2
 
KRGK - Red Wing, Minnesota, USA
Distance from station: N 38mi, 61km
Updated: 09/21/2018 5:35am
Light drizzle, Overcast
Light drizzle, Overcast
 Wind from W
Wind: W 18 mph , 30 km/h, Gust: 29 mph , 46 km/h
Temperature: 57°F , 14°C
Dew Point: 55°F , 13°C
Humidity: 94%
Barometer: 29.74 inHg , 1007.1 hPa
Summary: Light Drizzle
Clouds: Overcast
Visibility: 7 miles , 11 km
Cloud details: Partly cloudy 1200 ft
Mostly cloudy 2900 ft
Overcast 3400 ft
2018/09/21 10:35 KRGK 211035Z AUTO 28016G25KT 7SM -DZ SCT012 BKN029 OVC034 14/13 A2974 RMK AO2
KOWA - Owatonna, Minnesota, USA
Distance from station: W 41mi, 65km
Updated: 09/21/2018 5:16am
Overcast
Overcast
 Wind from W
Wind: W 18 mph , 30 km/h, Gust: 28 mph , 44 km/h
Temperature: 55°F , 13°C
Dew Point: 52°F , 11°C
Humidity: 88%
Barometer: 29.82 inHg , 1009.8 hPa
Clouds: Overcast
Visibility: 10 miles , 16 km
Cloud details: Mostly cloudy 1700 ft
Overcast 2700 ft
2018/09/21 10:16 KOWA 211016Z AUTO 28016G24KT 10SM BKN017 OVC027 13/11 A2982 RMK AO2
 
KSYN - Stanton, Minnesota, USA
Distance from station: NW 42mi, 68km
Updated: 09/20/2018 6:47pm
NOT Current
Overcast
Overcast
 Wind from ENE
Wind: ENE 8 mph , 13 km/h
Temperature: 70°F , 21°C
Dew Point: 66°F , 19°C
Humidity: 88%
Barometer: 29.47 inHg , 998 hPa
Clouds: Overcast
Visibility: 7 miles , 11 km
Cloud details: Overcast 800 ft
2018/09/20 23:47 KSYN 202347Z AUTO 06007KT 7SM OVC008 21/19 A2947 RMK AO2 LTG DSNT SW THRU NW T02060193
KFBL - Faribault Muni, Minnesota, USA
Distance from station: WNW 48mi, 77km
Updated: 09/20/2018 6:41pm
NOT Current

 Wind from SSE
Wind: SSE 18 mph , 30 km/h, Gust: 45 mph , 72 km/h
Visibility: 4 miles , 6 km
2018/09/20 23:41 KFBL 202341Z AUTO 15016G39KT 122V182 4SM +VCTSRA SCT010 BKN070 21/21 A2951 RMK AO2 P0008 LTG DSNT ALQDS